sensor_id;sensor_type;location;lat;lon;timestamp;pressure;altitude;pressure_sealevel;temperature;humidity
24422;BME280;12600;53.326;-6.298;2024-02-26T00:00:48;100526.03;;;7.57;92.19
24422;BME280;12600;53.326;-6.298;2024-02-26T00:03:37;100526.56;;;7.59;92.84
24422;BME280;12600;53.326;-6.298;2024-02-26T00:06:30;100537.09;;;7.42;93.94
24422;BME280;12600;53.326;-6.298;2024-02-26T00:09:20;100548.31;;;7.59;93.46
24422;BME280;12600;53.326;-6.298;2024-02-26T00:12:10;100550.31;;;7.72;93.45
24422;BME280;12600;53.326;-6.298;2024-02-26T00:15:01;100559.59;;;7.71;92.95
24422;BME280;12600;53.326;-6.298;2024-02-26T00:17:51;100548.25;;;7.64;93.04
24422;BME280;12600;53.326;-6.298;2024-02-26T00:20:41;100560.03;;;7.78;92.69
24422;BME280;12600;53.326;-6.298;2024-02-26T00:23:31;100553.38;;;7.66;92.89
24422;BME280;12600;53.326;-6.298;2024-02-26T00:26:20;100569.91;;;7.69;92.77
24422;BME280;12600;53.326;-6.298;2024-02-26T00:29:10;100571.09;;;7.63;93.21
24422;BME280;12600;53.326;-6.298;2024-02-26T00:32:01;100580.00;;;7.69;93.11
24422;BME280;12600;53.326;-6.298;2024-02-26T00:34:50;100567.13;;;7.55;93.07
24422;BME280;12600;53.326;-6.298;2024-02-26T00:37:40;100567.75;;;7.47;92.80
24422;BME280;12600;53.326;-6.298;2024-02-26T00:40:31;100600.44;;;7.66;92.89
24422;BME280;12600;53.326;-6.298;2024-02-26T00:43:20;100599.16;;;7.58;93.33
24422;BME280;12600;53.326;-6.298;2024-02-26T00:46:10;100622.59;;;7.54;93.09
24422;BME280;12600;53.326;-6.298;2024-02-26T00:49:00;100624.56;;;7.49;93.91
24422;BME280;12600;53.326;-6.298;2024-02-26T00:51:51;100627.28;;;7.49;93.75
24422;BME280;12600;53.326;-6.298;2024-02-26T00:54:40;100626.22;;;7.45;93.36
24422;BME280;12600;53.326;-6.298;2024-02-26T00:57:30;100620.28;;;7.43;93.82
24422;BME280;12600;53.326;-6.298;2024-02-26T01:00:19;100641.69;;;7.49;93.71
24422;BME280;12600;53.326;-6.298;2024-02-26T01:03:09;100639.94;;;7.58;93.35
24422;BME280;12600;53.326;-6.298;2024-02-26T01:06:00;100651.44;;;7.50;93.30
24422;BME280;12600;53.326;-6.298;2024-02-26T01:08:50;100660.88;;;7.58;93.02
24422;BME280;12600;53.326;-6.298;2024-02-26T01:11:39;100663.31;;;7.60;93.24
24422;BME280;12600;53.326;-6.298;2024-02-26T01:14:29;100660.41;;;7.51;93.15
24422;BME280;12600;53.326;-6.298;2024-02-26T01:17:18;100678.03;;;7.53;93.11
24422;BME280;12600;53.326;-6.298;2024-02-26T01:20:09;100686.44;;;7.57;93.01
24422;BME280;12600;53.326;-6.298;2024-02-26T01:23:00;100689.66;;;7.64;93.34
24422;BME280;12600;53.326;-6.298;2024-02-26T01:25:49;100696.41;;;7.67;92.96
24422;BME280;12600;53.326;-6.298;2024-02-26T01:28:39;100704.34;;;7.63;92.79
24422;BME280;12600;53.326;-6.298;2024-02-26T01:31:28;100716.94;;;7.54;92.70
24422;BME280;12600;53.326;-6.298;2024-02-26T01:34:18;100717.22;;;7.52;92.57
24422;BME280;12600;53.326;-6.298;2024-02-26T01:37:08;100709.59;;;7.54;92.76
24422;BME280;12600;53.326;-6.298;2024-02-26T01:39:58;100733.00;;;7.50;91.89
24422;BME280;12600;53.326;-6.298;2024-02-26T01:42:53;100734.06;;;7.54;92.46
24422;BME280;12600;53.326;-6.298;2024-02-26T01:45:42;100734.88;;;7.55;91.72
24422;BME280;12600;53.326;-6.298;2024-02-26T01:48:32;100739.91;;;7.38;92.15
24422;BME280;12600;53.326;-6.298;2024-02-26T01:51:22;100755.38;;;7.42;91.72
24422;BME280;12600;53.326;-6.298;2024-02-26T01:54:12;100761.19;;;7.31;91.84
24422;BME280;12600;53.326;-6.298;2024-02-26T01:57:04;100783.38;;;7.38;92.23
24422;BME280;12600;53.326;-6.298;2024-02-26T01:59:55;100790.53;;;7.28;92.52
24422;BME280;12600;53.326;-6.298;2024-02-26T02:02:45;100797.97;;;7.18;92.80
24422;BME280;12600;53.326;-6.298;2024-02-26T02:05:36;100806.91;;;7.23;92.49
24422;BME280;12600;53.326;-6.298;2024-02-26T02:08:30;100815.88;;;7.24;92.19
24422;BME280;12600;53.326;-6.298;2024-02-26T02:11:19;100815.59;;;7.20;91.72
24422;BME280;12600;53.326;-6.298;2024-02-26T02:14:10;100820.00;;;7.16;91.70
24422;BME280;12600;53.326;-6.298;2024-02-26T02:17:00;100832.53;;;7.07;91.99
24422;BME280;12600;53.326;-6.298;2024-02-26T02:19:49;100838.78;;;7.08;91.70
24422;BME280;12600;53.326;-6.298;2024-02-26T02:22:40;100843.72;;;7.00;91.21
24422;BME280;12600;53.326;-6.298;2024-02-26T02:25:30;100840.56;;;6.78;93.20
24422;BME280;12600;53.326;-6.298;2024-02-26T02:28:19;100844.91;;;6.79;92.82
24422;BME280;12600;53.326;-6.298;2024-02-26T02:31:09;100860.91;;;6.81;92.83
24422;BME280;12600;53.326;-6.298;2024-02-26T02:34:00;100849.63;;;6.58;93.72
24422;BME280;12600;53.326;-6.298;2024-02-26T02:36:52;100850.69;;;6.57;92.99
24422;BME280;12600;53.326;-6.298;2024-02-26T02:39:43;100845.59;;;6.51;93.08
24422;BME280;12600;53.326;-6.298;2024-02-26T02:42:33;100866.97;;;6.57;93.05
24422;BME280;12600;53.326;-6.298;2024-02-26T02:45:22;100881.13;;;6.49;93.05
24422;BME280;12600;53.326;-6.298;2024-02-26T02:48:12;100885.50;;;6.45;93.21
24422;BME280;12600;53.326;-6.298;2024-02-26T02:51:02;100893.13;;;6.23;94.07
24422;BME280;12600;53.326;-6.298;2024-02-26T02:53:51;100891.25;;;6.18;94.80
24422;BME280;12600;53.326;-6.298;2024-02-26T02:56:42;100910.50;;;6.22;95.72
24422;BME280;12600;53.326;-6.298;2024-02-26T02:59:31;100920.00;;;6.14;96.16
24422;BME280;12600;53.326;-6.298;2024-02-26T03:02:21;100921.09;;;6.08;96.11
24422;BME280;12600;53.326;-6.298;2024-02-26T03:05:13;100933.84;;;6.12;95.64
24422;BME280;12600;53.326;-6.298;2024-02-26T03:08:02;100933.31;;;6.05;96.13
24422;BME280;12600;53.326;-6.298;2024-02-26T03:10:52;100944.44;;;5.99;97.13
24422;BME280;12600;53.326;-6.298;2024-02-26T03:13:43;100939.28;;;6.02;96.68
24422;BME280;12600;53.326;-6.298;2024-02-26T03:16:32;100951.19;;;6.01;96.19
24422;BME280;12600;53.326;-6.298;2024-02-26T03:19:22;100950.38;;;5.91;96.77
24422;BME280;12600;53.326;-6.298;2024-02-26T03:22:13;100974.81;;;5.96;97.29
24422;BME280;12600;53.326;-6.298;2024-02-26T03:25:04;100979.16;;;5.97;96.74
24422;BME280;12600;53.326;-6.298;2024-02-26T03:27:53;100974.22;;;5.83;96.84
24422;BME280;12600;53.326;-6.298;2024-02-26T03:30:44;100982.09;;;5.90;97.04
24422;BME280;12600;53.326;-6.298;2024-02-26T03:33:34;100982.63;;;5.82;97.07
24422;BME280;12600;53.326;-6.298;2024-02-26T03:36:24;100988.06;;;5.87;97.62
24422;BME280;12600;53.326;-6.298;2024-02-26T03:39:14;100984.78;;;5.85;97.76
24422;BME280;12600;53.326;-6.298;2024-02-26T03:42:04;100990.75;;;5.82;97.82
24422;BME280;12600;53.326;-6.298;2024-02-26T03:44:53;100994.56;;;5.81;96.79
24422;BME280;12600;53.326;-6.298;2024-02-26T03:47:44;101014.88;;;5.83;97.43
24422;BME280;12600;53.326;-6.298;2024-02-26T03:50:34;101021.09;;;5.74;98.01
24422;BME280;12600;53.326;-6.298;2024-02-26T03:53:23;101027.63;;;5.73;97.13
24422;BME280;12600;53.326;-6.298;2024-02-26T03:56:12;101032.50;;;5.71;97.36
24422;BME280;12600;53.326;-6.298;2024-02-26T03:59:02;101053.06;;;5.61;98.16
24422;BME280;12600;53.326;-6.298;2024-02-26T04:01:51;101068.50;;;5.61;98.39
24422;BME280;12600;53.326;-6.298;2024-02-26T04:04:42;101064.72;;;5.62;97.75
24422;BME280;12600;53.326;-6.298;2024-02-26T04:07:31;101064.97;;;5.60;97.39
24422;BME280;12600;53.326;-6.298;2024-02-26T04:10:21;101073.09;;;5.55;98.54
24422;BME280;12600;53.326;-6.298;2024-02-26T04:13:10;101074.97;;;5.50;98.91
24422;BME280;12600;53.326;-6.298;2024-02-26T04:16:00;101073.34;;;5.49;98.95
24422;BME280;12600;53.326;-6.298;2024-02-26T04:18:50;101080.97;;;5.57;98.69
24422;BME280;12600;53.326;-6.298;2024-02-26T04:21:43;101093.69;;;5.56;98.64
24422;BME280;12600;53.326;-6.298;2024-02-26T04:24:32;101106.41;;;5.51;99.14
24422;BME280;12600;53.326;-6.298;2024-02-26T04:27:22;101105.06;;;5.53;98.92
24422;BME280;12600;53.326;-6.298;2024-02-26T04:30:12;101105.63;;;5.55;98.88
24422;BME280;12600;53.326;-6.298;2024-02-26T04:33:01;101124.56;;;5.50;98.09
24422;BME280;12600;53.326;-6.298;2024-02-26T04:35:51;101131.59;;;5.51;97.91
24422;BME280;12600;53.326;-6.298;2024-02-26T04:38:42;101133.78;;;5.49;97.80
24422;BME280;12600;53.326;-6.298;2024-02-26T04:41:31;101141.38;;;5.52;98.18
24422;BME280;12600;53.326;-6.298;2024-02-26T04:44:21;101146.69;;;5.37;97.36
24422;BME280;12600;53.326;-6.298;2024-02-26T04:47:10;101136.13;;;5.30;98.16
24422;BME280;12600;53.326;-6.298;2024-02-26T04:49:59;101153.78;;;5.43;98.33
24422;BME280;12600;53.326;-6.298;2024-02-26T04:52:49;101161.09;;;5.43;98.36
24422;BME280;12600;53.326;-6.298;2024-02-26T04:55:40;101165.16;;;5.40;97.89
24422;BME280;12600;53.326;-6.298;2024-02-26T04:58:29;101174.38;;;5.44;98.19
24422;BME280;12600;53.326;-6.298;2024-02-26T05:01:19;101186.31;;;5.43;98.56
24422;BME280;12600;53.326;-6.298;2024-02-26T05:04:09;101184.63;;;5.37;98.20
24422;BME280;12600;53.326;-6.298;2024-02-26T05:06:59;101198.53;;;5.46;97.50
24422;BME280;12600;53.326;-6.298;2024-02-26T05:09:49;101186.78;;;5.35;97.03
24422;BME280;12600;53.326;-6.298;2024-02-26T05:12:40;101194.97;;;5.40;97.14
24422;BME280;12600;53.326;-6.298;2024-02-26T05:15:30;101208.22;;;5.37;96.86
24422;BME280;12600;53.326;-6.298;2024-02-26T05:18:20;101218.47;;;5.29;97.05
24422;BME280;12600;53.326;-6.298;2024-02-26T05:21:09;101230.63;;;5.22;97.86
24422;BME280;12600;53.326;-6.298;2024-02-26T05:23:59;101237.06;;;5.16;98.13
24422;BME280;12600;53.326;-6.298;2024-02-26T05:26:49;101242.47;;;5.16;97.90
24422;BME280;12600;53.326;-6.298;2024-02-26T05:29:40;101259.22;;;5.13;98.75
24422;BME280;12600;53.326;-6.298;2024-02-26T05:32:29;101261.13;;;5.12;98.21
24422;BME280;12600;53.326;-6.298;2024-02-26T05:35:18;101260.16;;;4.96;98.78
24422;BME280;12600;53.326;-6.298;2024-02-26T05:38:08;101268.34;;;5.01;99.68
24422;BME280;12600;53.326;-6.298;2024-02-26T05:40:58;101268.13;;;5.08;98.60
24422;BME280;12600;53.326;-6.298;2024-02-26T05:43:47;101270.03;;;5.08;97.96
24422;BME280;12600;53.326;-6.298;2024-02-26T05:46:38;101280.31;;;5.05;98.30
24422;BME280;12600;53.326;-6.298;2024-02-26T05:49:27;101279.13;;;4.96;99.06
24422;BME280;12600;53.326;-6.298;2024-02-26T05:52:17;101294.06;;;4.99;99.20
24422;BME280;12600;53.326;-6.298;2024-02-26T05:55:08;101295.88;;;4.93;98.20
24422;BME280;12600;53.326;-6.298;2024-02-26T05:57:57;101307.84;;;4.97;98.08
24422;BME280;12600;53.326;-6.298;2024-02-26T06:00:47;101308.59;;;4.93;99.03
24422;BME280;12600;53.326;-6.298;2024-02-26T06:03:38;101307.53;;;4.94;98.75
24422;BME280;12600;53.326;-6.298;2024-02-26T06:06:27;101307.28;;;4.95;98.98
24422;BME280;12600;53.326;-6.298;2024-02-26T06:09:17;101302.47;;;5.02;98.11
24422;BME280;12600;53.326;-6.298;2024-02-26T06:12:07;101292.09;;;4.94;98.58
24422;BME280;12600;53.326;-6.298;2024-02-26T06:14:57;101308.97;;;5.01;98.00
24422;BME280;12600;53.326;-6.298;2024-02-26T06:17:49;101310.84;;;5.01;97.89
24422;BME280;12600;53.326;-6.298;2024-02-26T06:20:41;101323.59;;;5.00;97.79
24422;BME280;12600;53.326;-6.298;2024-02-26T06:23:30;101329.81;;;5.01;97.92
24422;BME280;12600;53.326;-6.298;2024-02-26T06:26:20;101333.84;;;4.98;97.59
24422;BME280;12600;53.326;-6.298;2024-02-26T06:29:09;101333.78;;;4.93;97.53
24422;BME280;12600;53.326;-6.298;2024-02-26T06:31:59;101344.34;;;4.90;97.21
24422;BME280;12600;53.326;-6.298;2024-02-26T06:34:48;101344.06;;;4.91;97.59
24422;BME280;12600;53.326;-6.298;2024-02-26T06:37:39;101353.50;;;4.89;97.59
24422;BME280;12600;53.326;-6.298;2024-02-26T06:40:28;101349.97;;;4.88;97.23
24422;BME280;12600;53.326;-6.298;2024-02-26T06:43:18;101357.53;;;4.86;97.55
24422;BME280;12600;53.326;-6.298;2024-02-26T06:46:07;101362.34;;;4.79;97.13
24422;BME280;12600;53.326;-6.298;2024-02-26T06:48:57;101367.19;;;4.77;97.39
24422;BME280;12600;53.326;-6.298;2024-02-26T06:51:46;101389.97;;;4.81;98.07
24422;BME280;12600;53.326;-6.298;2024-02-26T06:54:37;101376.00;;;4.67;97.77
24422;BME280;12600;53.326;-6.298;2024-02-26T06:57:27;101368.44;;;4.69;97.61
24422;BME280;12600;53.326;-6.298;2024-02-26T07:00:17;101374.03;;;4.63;98.43
24422;BME280;12600;53.326;-6.298;2024-02-26T07:03:07;101396.78;;;4.84;97.70
24422;BME280;12600;53.326;-6.298;2024-02-26T07:05:56;101391.03;;;4.80;97.69
24422;BME280;12600;53.326;-6.298;2024-02-26T07:08:46;101392.66;;;4.81;97.22
24422;BME280;12600;53.326;-6.298;2024-02-26T07:11:37;101389.72;;;4.83;96.71
24422;BME280;12600;53.326;-6.298;2024-02-26T07:14:27;101373.59;;;4.71;96.88
24422;BME280;12600;53.326;-6.298;2024-02-26T07:17:16;101400.22;;;4.79;97.00
24422;BME280;12600;53.326;-6.298;2024-02-26T07:20:07;101417.63;;;4.83;96.60
24422;BME280;12600;53.326;-6.298;2024-02-26T07:22:58;101422.22;;;4.83;96.61
24422;BME280;12600;53.326;-6.298;2024-02-26T07:25:47;101412.06;;;4.73;96.88
24422;BME280;12600;53.326;-6.298;2024-02-26T07:28:42;101430.00;;;4.79;96.79
24422;BME280;12600;53.326;-6.298;2024-02-26T07:31:31;101425.66;;;4.78;96.63
24422;BME280;12600;53.326;-6.298;2024-02-26T07:34:21;101436.50;;;4.78;96.91
24422;BME280;12600;53.326;-6.298;2024-02-26T07:37:15;101438.38;;;4.77;96.90
24422;BME280;12600;53.326;-6.298;2024-02-26T07:40:07;101448.13;;;4.78;97.10
24422;BME280;12600;53.326;-6.298;2024-02-26T07:42:57;101451.09;;;4.77;97.60
24422;BME280;12600;53.326;-6.298;2024-02-26T07:45:48;101445.88;;;4.70;98.01
24422;BME280;12600;53.326;-6.298;2024-02-26T07:48:37;101431.81;;;4.52;98.67
24422;BME280;12600;53.326;-6.298;2024-02-26T07:51:27;101465.72;;;4.76;99.00
24422;BME280;12600;53.326;-6.298;2024-02-26T07:54:16;101475.72;;;4.75;99.76
24422;BME280;12600;53.326;-6.298;2024-02-26T07:57:07;101485.78;;;4.80;99.38
24422;BME280;12600;53.326;-6.298;2024-02-26T07:59:56;101490.97;;;4.82;100.00
24422;BME280;12600;53.326;-6.298;2024-02-26T08:02:47;101469.97;;;4.72;99.69
24422;BME280;12600;53.326;-6.298;2024-02-26T08:05:37;101494.63;;;4.92;99.92
24422;BME280;12600;53.326;-6.298;2024-02-26T08:08:28;101505.19;;;4.94;100.00
24422;BME280;12600;53.326;-6.298;2024-02-26T08:11:17;101508.81;;;4.99;99.99
24422;BME280;12600;53.326;-6.298;2024-02-26T08:14:07;101521.56;;;5.04;100.00
24422;BME280;12600;53.326;-6.298;2024-02-26T08:16:56;101530.91;;;5.13;99.67
24422;BME280;12600;53.326;-6.298;2024-02-26T08:19:47;101532.75;;;5.08;100.00
24422;BME280;12600;53.326;-6.298;2024-02-26T08:22:37;101531.81;;;5.19;100.00
24422;BME280;12600;53.326;-6.298;2024-02-26T08:25:27;101545.03;;;5.15;100.00
24422;BME280;12600;53.326;-6.298;2024-02-26T08:28:17;101534.31;;;5.25;100.00
24422;BME280;12600;53.326;-6.298;2024-02-26T08:31:06;101535.41;;;5.24;100.00
24422;BME280;12600;53.326;-6.298;2024-02-26T08:33:56;101519.41;;;5.23;100.00
24422;BME280;12600;53.326;-6.298;2024-02-26T08:36:48;101563.81;;;5.44;100.00
24422;BME280;12600;53.326;-6.298;2024-02-26T08:39:38;101549.50;;;5.48;99.87
24422;BME280;12600;53.326;-6.298;2024-02-26T08:42:28;101546.84;;;5.53;100.00
24422;BME280;12600;53.326;-6.298;2024-02-26T08:45:18;101556.69;;;5.59;99.85
24422;BME280;12600;53.326;-6.298;2024-02-26T08:48:08;101568.59;;;5.58;100.00
24422;BME280;12600;53.326;-6.298;2024-02-26T08:50:58;101579.06;;;5.72;100.00
24422;BME280;12600;53.326;-6.298;2024-02-26T08:53:48;101576.38;;;5.77;100.00
24422;BME280;12600;53.326;-6.298;2024-02-26T08:56:39;101594.06;;;5.79;99.79
24422;BME280;12600;53.326;-6.298;2024-02-26T08:59:28;101593.88;;;5.86;98.94
24422;BME280;12600;53.326;-6.298;2024-02-26T09:02:18;101618.25;;;6.08;99.03
24422;BME280;12600;53.326;-6.298;2024-02-26T09:05:08;101629.13;;;6.35;97.75
24422;BME280;12600;53.326;-6.298;2024-02-26T09:07:58;101618.41;;;6.50;97.60
24422;BME280;12600;53.326;-6.298;2024-02-26T09:10:50;101621.97;;;6.88;96.55
24422;BME280;12600;53.326;-6.298;2024-02-26T09:13:39;101627.28;;;7.10;94.10
24422;BME280;12600;53.326;-6.298;2024-02-26T09:16:28;101621.53;;;7.48;92.41
24422;BME280;12600;53.326;-6.298;2024-02-26T09:19:18;101627.91;;;7.74;90.83
24422;BME280;12600;53.326;-6.298;2024-02-26T09:22:08;101631.81;;;8.04;90.24
24422;BME280;12600;53.326;-6.298;2024-02-26T09:24:57;101634.50;;;7.99;88.64
24422;BME280;12600;53.326;-6.298;2024-02-26T09:27:48;101635.50;;;7.72;88.91
24422;BME280;12600;53.326;-6.298;2024-02-26T09:30:38;101644.97;;;7.54;89.13
24422;BME280;12600;53.326;-6.298;2024-02-26T09:33:28;101571.81;;;7.00;89.08
24422;BME280;12600;53.326;-6.298;2024-02-26T09:36:18;101656.09;;;7.58;89.76
24422;BME280;12600;53.326;-6.298;2024-02-26T09:39:07;101639.16;;;7.41;89.93
24422;BME280;12600;53.326;-6.298;2024-02-26T09:42:01;101662.59;;;7.47;89.69
24422;BME280;12600;53.326;-6.298;2024-02-26T09:44:56;101668.53;;;7.44;89.48
24422;BME280;12600;53.326;-6.298;2024-02-26T09:47:49;101683.81;;;7.50;89.75
24422;BME280;12600;53.326;-6.298;2024-02-26T09:50:41;101663.59;;;7.36;89.88
24422;BME280;12600;53.326;-6.298;2024-02-26T09:53:32;101673.19;;;7.48;90.11
24422;BME280;12600;53.326;-6.298;2024-02-26T09:56:24;101667.22;;;7.51;89.51
24422;BME280;12600;53.326;-6.298;2024-02-26T09:59:17;101668.66;;;7.64;89.28
24422;BME280;12600;53.326;-6.298;2024-02-26T10:02:11;101671.38;;;7.64;89.22
24422;BME280;12600;53.326;-6.298;2024-02-26T10:05:03;101664.31;;;7.68;88.77
24422;BME280;12600;53.326;-6.298;2024-02-26T10:07:54;101667.34;;;7.72;88.10
24422;BME280;12600;53.326;-6.298;2024-02-26T10:10:45;101664.91;;;7.80;87.58
24422;BME280;12600;53.326;-6.298;2024-02-26T10:13:35;101663.28;;;7.79;86.80
24422;BME280;12600;53.326;-6.298;2024-02-26T10:16:26;101633.88;;;7.76;86.43
24422;BME280;12600;53.326;-6.298;2024-02-26T10:19:27;101642.66;;;7.89;85.86
24422;BME280;12600;53.326;-6.298;2024-02-26T10:22:18;101629.88;;;7.94;85.53
24422;BME280;12600;53.326;-6.298;2024-02-26T10:25:11;101645.94;;;8.01;85.16
24422;BME280;12600;53.326;-6.298;2024-02-26T10:28:01;101644.34;;;8.05;84.93
24422;BME280;12600;53.326;-6.298;2024-02-26T10:30:52;101656.31;;;8.14;84.34
24422;BME280;12600;53.326;-6.298;2024-02-26T10:33:43;101660.72;;;8.30;84.35
24422;BME280;12600;53.326;-6.298;2024-02-26T10:36:35;101650.34;;;8.22;84.36
24422;BME280;12600;53.326;-6.298;2024-02-26T10:39:39;101634.03;;;8.27;84.11
24422;BME280;12600;53.326;-6.298;2024-02-26T10:42:35;101650.44;;;8.48;83.96
24422;BME280;12600;53.326;-6.298;2024-02-26T10:45:25;101655.09;;;8.78;83.46
24422;BME280;12600;53.326;-6.298;2024-02-26T10:48:15;101643.91;;;9.00;83.26
24422;BME280;12600;53.326;-6.298;2024-02-26T10:51:05;101647.19;;;9.07;82.04
24422;BME280;12600;53.326;-6.298;2024-02-26T10:53:59;101658.34;;;9.10;80.88
24422;BME280;12600;53.326;-6.298;2024-02-26T10:56:50;101663.53;;;9.17;80.86
24422;BME280;12600;53.326;-6.298;2024-02-26T10:59:41;101664.59;;;9.31;80.42
24422;BME280;12600;53.326;-6.298;2024-02-26T11:02:33;101669.78;;;9.22;78.43
24422;BME280;12600;53.326;-6.298;2024-02-26T11:05:23;101683.66;;;9.36;77.99
24422;BME280;12600;53.326;-6.298;2024-02-26T11:08:13;101674.09;;;9.44;76.20
24422;BME280;12600;53.326;-6.298;2024-02-26T11:11:05;101694.69;;;9.96;75.68
24422;BME280;12600;53.326;-6.298;2024-02-26T11:13:55;101705.25;;;10.67;72.25
24422;BME280;12600;53.326;-6.298;2024-02-26T11:16:45;101708.16;;;11.15;67.05
24422;BME280;12600;53.326;-6.298;2024-02-26T11:19:36;101707.66;;;12.14;66.29
24422;BME280;12600;53.326;-6.298;2024-02-26T11:22:27;101719.16;;;12.72;63.54
24422;BME280;12600;53.326;-6.298;2024-02-26T11:25:18;101716.50;;;13.19;61.86
24422;BME280;12600;53.326;-6.298;2024-02-26T11:28:13;101719.66;;;13.44;56.73
24422;BME280;12600;53.326;-6.298;2024-02-26T11:31:04;101722.44;;;13.86;57.84
24422;BME280;12600;53.326;-6.298;2024-02-26T11:33:56;101716.81;;;14.18;59.02
24422;BME280;12600;53.326;-6.298;2024-02-26T11:36:47;101733.25;;;14.60;53.18
24422;BME280;12600;53.326;-6.298;2024-02-26T11:39:37;101757.31;;;14.26;51.40
24422;BME280;12600;53.326;-6.298;2024-02-26T11:42:28;101754.28;;;14.00;54.15
24422;BME280;12600;53.326;-6.298;2024-02-26T11:45:51;101770.75;;;13.87;51.26
24422;BME280;12600;53.326;-6.298;2024-02-26T11:48:41;101779.94;;;14.10;52.87
24422;BME280;12600;53.326;-6.298;2024-02-26T11:51:34;101783.28;;;13.47;50.55
24422;BME280;12600;53.326;-6.298;2024-02-26T11:54:43;101784.75;;;13.58;52.27
24422;BME280;12600;53.326;-6.298;2024-02-26T11:57:39;101790.97;;;13.12;52.99
24422;BME280;12600;53.326;-6.298;2024-02-26T12:00:29;101801.44;;;12.72;53.71
24422;BME280;12600;53.326;-6.298;2024-02-26T12:03:23;101792.50;;;12.19;53.42
24422;BME280;12600;53.326;-6.298;2024-02-26T12:06:12;101797.31;;;11.79;54.57
24422;BME280;12600;53.326;-6.298;2024-02-26T12:09:02;101807.00;;;11.66;54.46
24422;BME280;12600;53.326;-6.298;2024-02-26T12:11:52;101769.25;;;11.00;55.14
24422;BME280;12600;53.326;-6.298;2024-02-26T12:14:52;101797.84;;;11.18;55.79
24422;BME280;12600;53.326;-6.298;2024-02-26T12:17:42;101810.22;;;11.10;55.98
24422;BME280;12600;53.326;-6.298;2024-02-26T12:20:38;101804.63;;;10.81;56.38
24422;BME280;12600;53.326;-6.298;2024-02-26T12:23:28;101787.84;;;10.54;57.16
24422;BME280;12600;53.326;-6.298;2024-02-26T12:26:18;101800.94;;;10.57;56.76
24422;BME280;12600;53.326;-6.298;2024-02-26T12:29:08;101795.53;;;10.52;56.42
24422;BME280;12600;53.326;-6.298;2024-02-26T12:31:59;101807.78;;;10.59;56.08
24422;BME280;12600;53.326;-6.298;2024-02-26T12:34:50;101799.59;;;10.54;55.70
24422;BME280;12600;53.326;-6.298;2024-02-26T12:37:41;101792.72;;;10.62;56.25
24422;BME280;12600;53.326;-6.298;2024-02-26T12:40:32;101792.97;;;10.65;56.67
24422;BME280;12600;53.326;-6.298;2024-02-26T12:43:21;101793.19;;;10.74;57.06
24422;BME280;12600;53.326;-6.298;2024-02-26T12:46:11;101794.56;;;10.77;56.94
24422;BME280;12600;53.326;-6.298;2024-02-26T12:49:03;101795.06;;;10.84;55.82
24422;BME280;12600;53.326;-6.298;2024-02-26T12:51:54;101787.94;;;10.88;55.15
24422;BME280;12600;53.326;-6.298;2024-02-26T12:54:51;101781.44;;;10.74;53.69
24422;BME280;12600;53.326;-6.298;2024-02-26T12:57:42;101792.28;;;10.89;54.06
24422;BME280;12600;53.326;-6.298;2024-02-26T13:00:32;101787.38;;;10.91;54.99
24422;BME280;12600;53.326;-6.298;2024-02-26T13:03:22;101798.03;;;10.92;55.48
24422;BME280;12600;53.326;-6.298;2024-02-26T13:06:13;101799.47;;;10.75;55.51
24422;BME280;12600;53.326;-6.298;2024-02-26T13:09:03;101796.44;;;10.81;55.79
24422;BME280;12600;53.326;-6.298;2024-02-26T13:11:55;101798.41;;;10.71;53.86
24422;BME280;12600;53.326;-6.298;2024-02-26T13:14:45;101796.25;;;10.68;53.71
24422;BME280;12600;53.326;-6.298;2024-02-26T13:17:34;101797.34;;;10.67;54.38
24422;BME280;12600;53.326;-6.298;2024-02-26T13:20:27;101797.91;;;10.69;55.00
24422;BME280;12600;53.326;-6.298;2024-02-26T13:23:18;101791.34;;;10.64;54.24
24422;BME280;12600;53.326;-6.298;2024-02-26T13:26:08;101789.97;;;10.67;53.15
24422;BME280;12600;53.326;-6.298;2024-02-26T13:29:02;101803.59;;;10.77;52.51
24422;BME280;12600;53.326;-6.298;2024-02-26T13:31:57;101795.13;;;10.74;52.93
24422;BME280;12600;53.326;-6.298;2024-02-26T13:34:46;101802.41;;;10.93;52.83
24422;BME280;12600;53.326;-6.298;2024-02-26T13:37:36;101786.81;;;10.94;53.70
24422;BME280;12600;53.326;-6.298;2024-02-26T13:40:26;101800.38;;;11.09;53.39
24422;BME280;12600;53.326;-6.298;2024-02-26T13:43:17;101781.94;;;10.81;52.88
24422;BME280;12600;53.326;-6.298;2024-02-26T13:46:08;101809.78;;;10.93;52.61
24422;BME280;12600;53.326;-6.298;2024-02-26T13:48:58;101813.53;;;11.02;52.71
24422;BME280;12600;53.326;-6.298;2024-02-26T13:51:48;101819.03;;;10.97;51.93
24422;BME280;12600;53.326;-6.298;2024-02-26T13:54:38;101818.41;;;11.10;50.23
24422;BME280;12600;53.326;-6.298;2024-02-26T13:57:28;101776.69;;;10.89;50.47
24422;BME280;12600;53.326;-6.298;2024-02-26T14:00:19;101825.50;;;11.11;50.36
24422;BME280;12600;53.326;-6.298;2024-02-26T14:03:10;101818.50;;;11.00;50.90
24422;BME280;12600;53.326;-6.298;2024-02-26T14:05:59;101815.28;;;10.88;50.89
24422;BME280;12600;53.326;-6.298;2024-02-26T14:08:50;101819.63;;;10.94;51.49
24422;BME280;12600;53.326;-6.298;2024-02-26T14:11:39;101820.44;;;10.89;51.93
24422;BME280;12600;53.326;-6.298;2024-02-26T14:14:30;101829.00;;;10.83;51.93
24422;BME280;12600;53.326;-6.298;2024-02-26T14:17:23;101824.50;;;10.97;51.38
24422;BME280;12600;53.326;-6.298;2024-02-26T14:20:14;101808.31;;;11.06;51.27
24422;BME280;12600;53.326;-6.298;2024-02-26T14:23:04;101806.38;;;11.11;51.31
24422;BME280;12600;53.326;-6.298;2024-02-26T14:25:53;101808.16;;;11.31;51.18
24422;BME280;12600;53.326;-6.298;2024-02-26T14:28:42;101807.25;;;11.41;51.67
24422;BME280;12600;53.326;-6.298;2024-02-26T14:31:32;101789.56;;;11.28;52.03
24422;BME280;12600;53.326;-6.298;2024-02-26T14:34:21;101788.84;;;11.12;51.62
24422;BME280;12600;53.326;-6.298;2024-02-26T14:37:13;101789.88;;;11.21;51.44
24422;BME280;12600;53.326;-6.298;2024-02-26T14:40:02;101794.91;;;11.09;51.77
24422;BME280;12600;53.326;-6.298;2024-02-26T14:42:53;101795.00;;;10.94;51.04
24422;BME280;12600;53.326;-6.298;2024-02-26T14:45:42;101796.66;;;10.90;50.89
24422;BME280;12600;53.326;-6.298;2024-02-26T14:48:32;101807.69;;;10.75;50.50